sensor_id;sensor_type;location;lat;lon;timestamp;temperature;humidity
16700;DHT22;8466;52.286;21.124;2023-10-19T00:02:15;1.00;99.90
16700;DHT22;8466;52.286;21.124;2023-10-19T00:05:09;1.00;99.90
16700;DHT22;8466;52.286;21.124;2023-10-19T00:07:37;1.00;99.90
16700;DHT22;8466;52.286;21.124;2023-10-19T00:10:08;1.00;99.90
16700;DHT22;8466;52.286;21.124;2023-10-19T00:12:36;1.00;99.90
16700;DHT22;8466;52.286;21.124;2023-10-19T00:15:06;1.00;99.90
16700;DHT22;8466;52.286;21.124;2023-10-19T00:17:36;1.00;99.90
16700;DHT22;8466;52.286;21.124;2023-10-19T00:20:07;1.00;99.90
16700;DHT22;8466;52.286;21.124;2023-10-19T00:22:50;1.00;99.90
16700;DHT22;8466;52.286;21.124;2023-10-19T00:25:21;1.00;99.90
16700;DHT22;8466;52.286;21.124;2023-10-19T00:27:51;1.00;99.90
16700;DHT22;8466;52.286;21.124;2023-10-19T00:30:21;1.00;99.90
16700;DHT22;8466;52.286;21.124;2023-10-19T00:32:51;1.00;99.90
16700;DHT22;8466;52.286;21.124;2023-10-19T00:35:21;1.00;99.90
16700;DHT22;8466;52.286;21.124;2023-10-19T00:38:01;1.00;99.90
16700;DHT22;8466;52.286;21.124;2023-10-19T00:40:50;0.90;99.90
16700;DHT22;8466;52.286;21.124;2023-10-19T00:43:27;0.90;99.90
16700;DHT22;8466;52.286;21.124;2023-10-19T00:46:00;0.90;99.90
16700;DHT22;8466;52.286;21.124;2023-10-19T00:48:37;0.90;99.90
16700;DHT22;8466;52.286;21.124;2023-10-19T00:51:07;0.90;99.90
16700;DHT22;8466;52.286;21.124;2023-10-19T00:53:40;0.90;99.90
16700;DHT22;8466;52.286;21.124;2023-10-19T00:56:10;0.80;99.90
16700;DHT22;8466;52.286;21.124;2023-10-19T00:58:39;0.80;99.90
16700;DHT22;8466;52.286;21.124;2023-10-19T01:01:09;0.70;99.90
16700;DHT22;8466;52.286;21.124;2023-10-19T01:03:37;0.70;99.90
16700;DHT22;8466;52.286;21.124;2023-10-19T01:06:07;0.80;99.90
16700;DHT22;8466;52.286;21.124;2023-10-19T01:08:40;0.80;99.90
16700;DHT22;8466;52.286;21.124;2023-10-19T01:11:13;0.70;99.90
16700;DHT22;8466;52.286;21.124;2023-10-19T01:13:47;0.70;99.90
16700;DHT22;8466;52.286;21.124;2023-10-19T01:16:16;0.70;99.90
16700;DHT22;8466;52.286;21.124;2023-10-19T01:18:50;0.70;99.90
16700;DHT22;8466;52.286;21.124;2023-10-19T01:21:24;0.70;99.90
16700;DHT22;8466;52.286;21.124;2023-10-19T01:24:07;0.70;99.90
16700;DHT22;8466;52.286;21.124;2023-10-19T01:26:36;0.70;99.90
16700;DHT22;8466;52.286;21.124;2023-10-19T01:29:05;0.70;99.90
16700;DHT22;8466;52.286;21.124;2023-10-19T01:31:41;0.80;99.90
16700;DHT22;8466;52.286;21.124;2023-10-19T01:34:23;0.80;99.90
16700;DHT22;8466;52.286;21.124;2023-10-19T01:36:54;0.90;99.90
16700;DHT22;8466;52.286;21.124;2023-10-19T01:39:24;0.90;99.90
16700;DHT22;8466;52.286;21.124;2023-10-19T01:41:52;0.90;99.90
16700;DHT22;8466;52.286;21.124;2023-10-19T01:44:21;0.90;99.90
16700;DHT22;8466;52.286;21.124;2023-10-19T01:46:49;0.90;99.90
16700;DHT22;8466;52.286;21.124;2023-10-19T01:49:17;0.90;99.90
16700;DHT22;8466;52.286;21.124;2023-10-19T01:51:53;0.80;99.90
16700;DHT22;8466;52.286;21.124;2023-10-19T01:54:24;0.80;99.90
16700;DHT22;8466;52.286;21.124;2023-10-19T01:56:53;0.70;99.90
16700;DHT22;8466;52.286;21.124;2023-10-19T01:59:24;0.70;99.90
16700;DHT22;8466;52.286;21.124;2023-10-19T02:01:54;0.60;99.90
16700;DHT22;8466;52.286;21.124;2023-10-19T02:04:24;0.60;99.90
16700;DHT22;8466;52.286;21.124;2023-10-19T02:06:53;0.60;99.90
16700;DHT22;8466;52.286;21.124;2023-10-19T02:09:25;0.60;99.90
16700;DHT22;8466;52.286;21.124;2023-10-19T02:11:56;0.60;99.90
16700;DHT22;8466;52.286;21.124;2023-10-19T02:14:26;0.60;99.90
16700;DHT22;8466;52.286;21.124;2023-10-19T02:16:59;0.50;99.90
16700;DHT22;8466;52.286;21.124;2023-10-19T02:19:29;0.50;99.90
16700;DHT22;8466;52.286;21.124;2023-10-19T02:21:58;0.50;99.90
16700;DHT22;8466;52.286;21.124;2023-10-19T02:24:28;0.50;99.90
16700;DHT22;8466;52.286;21.124;2023-10-19T02:26:59;0.40;99.90
16700;DHT22;8466;52.286;21.124;2023-10-19T02:29:28;0.40;99.90
16700;DHT22;8466;52.286;21.124;2023-10-19T02:31:56;0.40;99.90
16700;DHT22;8466;52.286;21.124;2023-10-19T02:34:31;0.40;99.90
16700;DHT22;8466;52.286;21.124;2023-10-19T02:36:59;0.40;99.90
16700;DHT22;8466;52.286;21.124;2023-10-19T02:39:29;0.40;99.90
16700;DHT22;8466;52.286;21.124;2023-10-19T02:41:57;0.40;99.90
16700;DHT22;8466;52.286;21.124;2023-10-19T02:44:28;0.40;99.90
16700;DHT22;8466;52.286;21.124;2023-10-19T02:46:58;0.50;99.90
16700;DHT22;8466;52.286;21.124;2023-10-19T02:49:28;0.50;99.90
16700;DHT22;8466;52.286;21.124;2023-10-19T02:51:57;0.50;99.90
16700;DHT22;8466;52.286;21.124;2023-10-19T02:54:32;0.50;99.90
16700;DHT22;8466;52.286;21.124;2023-10-19T02:57:01;0.50;99.90
16700;DHT22;8466;52.286;21.124;2023-10-19T02:59:35;0.60;99.90
16700;DHT22;8466;52.286;21.124;2023-10-19T03:02:03;0.50;99.90
16700;DHT22;8466;52.286;21.124;2023-10-19T03:04:43;0.50;99.90
16700;DHT22;8466;52.286;21.124;2023-10-19T03:07:10;0.40;99.90
16700;DHT22;8466;52.286;21.124;2023-10-19T03:09:42;0.40;99.90
16700;DHT22;8466;52.286;21.124;2023-10-19T03:12:16;0.30;99.90
16700;DHT22;8466;52.286;21.124;2023-10-19T03:14:45;0.30;99.90
16700;DHT22;8466;52.286;21.124;2023-10-19T03:17:15;0.30;99.90
16700;DHT22;8466;52.286;21.124;2023-10-19T03:19:44;0.20;99.90
16700;DHT22;8466;52.286;21.124;2023-10-19T03:22:13;0.20;99.90
16700;DHT22;8466;52.286;21.124;2023-10-19T03:24:45;0.20;99.90
16700;DHT22;8466;52.286;21.124;2023-10-19T03:27:14;0.20;99.90
16700;DHT22;8466;52.286;21.124;2023-10-19T03:29:45;0.20;99.90
16700;DHT22;8466;52.286;21.124;2023-10-19T03:32:14;0.20;99.90
16700;DHT22;8466;52.286;21.124;2023-10-19T03:34:43;0.20;99.90
16700;DHT22;8466;52.286;21.124;2023-10-19T03:37:15;0.10;99.90
16700;DHT22;8466;52.286;21.124;2023-10-19T03:39:48;0.10;99.90
16700;DHT22;8466;52.286;21.124;2023-10-19T03:42:18;0.10;99.90
16700;DHT22;8466;52.286;21.124;2023-10-19T03:44:48;0.10;99.90
16700;DHT22;8466;52.286;21.124;2023-10-19T03:47:21;0.10;99.90
16700;DHT22;8466;52.286;21.124;2023-10-19T03:49:53;0.10;99.90
16700;DHT22;8466;52.286;21.124;2023-10-19T03:52:22;0.10;99.90
16700;DHT22;8466;52.286;21.124;2023-10-19T03:54:52;0.10;99.90
16700;DHT22;8466;52.286;21.124;2023-10-19T03:57:21;0.20;99.90
16700;DHT22;8466;52.286;21.124;2023-10-19T03:59:52;0.20;99.90
16700;DHT22;8466;52.286;21.124;2023-10-19T04:02:25;0.20;99.90
16700;DHT22;8466;52.286;21.124;2023-10-19T04:04:55;0.20;99.90
16700;DHT22;8466;52.286;21.124;2023-10-19T04:07:25;0.20;99.90
16700;DHT22;8466;52.286;21.124;2023-10-19T04:10:01;0.30;99.90
16700;DHT22;8466;52.286;21.124;2023-10-19T04:12:38;0.30;99.90
16700;DHT22;8466;52.286;21.124;2023-10-19T04:15:12;0.30;99.90
16700;DHT22;8466;52.286;21.124;2023-10-19T04:17:45;0.20;99.90
16700;DHT22;8466;52.286;21.124;2023-10-19T04:20:16;0.30;99.90
16700;DHT22;8466;52.286;21.124;2023-10-19T04:22:56;0.30;99.90
16700;DHT22;8466;52.286;21.124;2023-10-19T04:25:34;0.20;99.90
16700;DHT22;8466;52.286;21.124;2023-10-19T04:28:03;0.30;99.90
16700;DHT22;8466;52.286;21.124;2023-10-19T04:30:32;0.30;99.90
16700;DHT22;8466;52.286;21.124;2023-10-19T04:33:04;0.30;99.90
16700;DHT22;8466;52.286;21.124;2023-10-19T04:35:36;0.30;99.90
16700;DHT22;8466;52.286;21.124;2023-10-19T04:38:08;0.30;99.90
16700;DHT22;8466;52.286;21.124;2023-10-19T04:40:39;0.30;99.90
16700;DHT22;8466;52.286;21.124;2023-10-19T04:43:07;0.30;99.90
16700;DHT22;8466;52.286;21.124;2023-10-19T04:45:39;0.30;99.90
16700;DHT22;8466;52.286;21.124;2023-10-19T04:48:08;0.30;99.90
16700;DHT22;8466;52.286;21.124;2023-10-19T04:50:37;0.40;99.90
16700;DHT22;8466;52.286;21.124;2023-10-19T04:53:07;0.40;99.90
16700;DHT22;8466;52.286;21.124;2023-10-19T04:55:35;0.50;99.90
16700;DHT22;8466;52.286;21.124;2023-10-19T04:58:06;0.50;99.90
16700;DHT22;8466;52.286;21.124;2023-10-19T05:00:35;0.50;99.90
16700;DHT22;8466;52.286;21.124;2023-10-19T05:03:03;0.40;99.90
16700;DHT22;8466;52.286;21.124;2023-10-19T05:05:34;0.30;99.90
16700;DHT22;8466;52.286;21.124;2023-10-19T05:08:06;0.20;99.90
16700;DHT22;8466;52.286;21.124;2023-10-19T05:10:34;0.20;99.90
16700;DHT22;8466;52.286;21.124;2023-10-19T05:13:03;0.10;99.90
16700;DHT22;8466;52.286;21.124;2023-10-19T05:15:33;0.10;99.90
16700;DHT22;8466;52.286;21.124;2023-10-19T05:18:02;0.10;99.90
16700;DHT22;8466;52.286;21.124;2023-10-19T05:20:33;0.10;99.90
16700;DHT22;8466;52.286;21.124;2023-10-19T05:23:04;0.10;99.90
16700;DHT22;8466;52.286;21.124;2023-10-19T05:25:33;0.20;99.90
16700;DHT22;8466;52.286;21.124;2023-10-19T05:28:02;0.30;99.90
16700;DHT22;8466;52.286;21.124;2023-10-19T05:30:32;0.30;99.90
16700;DHT22;8466;52.286;21.124;2023-10-19T05:33:02;0.30;99.90
16700;DHT22;8466;52.286;21.124;2023-10-19T05:35:31;0.40;99.90
16700;DHT22;8466;52.286;21.124;2023-10-19T05:38:02;0.40;99.90
16700;DHT22;8466;52.286;21.124;2023-10-19T05:40:31;0.50;99.90
16700;DHT22;8466;52.286;21.124;2023-10-19T05:43:01;0.60;99.90
16700;DHT22;8466;52.286;21.124;2023-10-19T05:45:33;0.70;99.90
16700;DHT22;8466;52.286;21.124;2023-10-19T05:48:14;0.80;99.90
16700;DHT22;8466;52.286;21.124;2023-10-19T05:50:48;0.90;99.90
16700;DHT22;8466;52.286;21.124;2023-10-19T05:53:21;1.00;99.90
16700;DHT22;8466;52.286;21.124;2023-10-19T05:55:50;1.00;99.90
16700;DHT22;8466;52.286;21.124;2023-10-19T05:58:22;1.10;99.90
16700;DHT22;8466;52.286;21.124;2023-10-19T06:00:58;1.20;99.90
16700;DHT22;8466;52.286;21.124;2023-10-19T06:03:27;1.20;99.90
16700;DHT22;8466;52.286;21.124;2023-10-19T06:05:57;1.30;99.90
16700;DHT22;8466;52.286;21.124;2023-10-19T06:08:25;1.30;99.90
16700;DHT22;8466;52.286;21.124;2023-10-19T06:10:54;1.40;99.90
16700;DHT22;8466;52.286;21.124;2023-10-19T06:13:23;1.60;99.90
16700;DHT22;8466;52.286;21.124;2023-10-19T06:15:54;1.60;99.90
16700;DHT22;8466;52.286;21.124;2023-10-19T06:18:23;1.60;99.90
16700;DHT22;8466;52.286;21.124;2023-10-19T06:20:52;1.80;99.90
16700;DHT22;8466;52.286;21.124;2023-10-19T06:23:22;1.90;99.90
16700;DHT22;8466;52.286;21.124;2023-10-19T06:25:51;1.90;99.90
16700;DHT22;8466;52.286;21.124;2023-10-19T06:28:20;2.10;99.90
16700;DHT22;8466;52.286;21.124;2023-10-19T06:30:48;2.20;99.90
16700;DHT22;8466;52.286;21.124;2023-10-19T06:33:19;2.30;99.90
16700;DHT22;8466;52.286;21.124;2023-10-19T06:35:57;2.40;99.90
16700;DHT22;8466;52.286;21.124;2023-10-19T06:38:26;2.50;99.90
16700;DHT22;8466;52.286;21.124;2023-10-19T06:40:55;2.70;99.90
16700;DHT22;8466;52.286;21.124;2023-10-19T06:43:24;2.80;99.90
16700;DHT22;8466;52.286;21.124;2023-10-19T06:45:58;2.90;99.90
16700;DHT22;8466;52.286;21.124;2023-10-19T06:48:36;3.00;99.90
16700;DHT22;8466;52.286;21.124;2023-10-19T06:51:07;3.10;99.90
16700;DHT22;8466;52.286;21.124;2023-10-19T06:53:36;3.20;99.90
16700;DHT22;8466;52.286;21.124;2023-10-19T06:56:05;3.30;99.90
16700;DHT22;8466;52.286;21.124;2023-10-19T06:58:35;3.50;99.90
16700;DHT22;8466;52.286;21.124;2023-10-19T07:01:07;3.60;99.90
16700;DHT22;8466;52.286;21.124;2023-10-19T07:03:39;3.70;99.90
16700;DHT22;8466;52.286;21.124;2023-10-19T07:06:11;3.80;99.90
16700;DHT22;8466;52.286;21.124;2023-10-19T07:08:41;3.90;99.90
16700;DHT22;8466;52.286;21.124;2023-10-19T07:11:10;4.00;99.90
16700;DHT22;8466;52.286;21.124;2023-10-19T07:13:39;4.00;99.90
16700;DHT22;8466;52.286;21.124;2023-10-19T07:16:11;4.10;99.90
16700;DHT22;8466;52.286;21.124;2023-10-19T07:18:42;4.20;99.90
16700;DHT22;8466;52.286;21.124;2023-10-19T07:21:10;4.30;99.90
16700;DHT22;8466;52.286;21.124;2023-10-19T07:23:40;4.40;99.90
16700;DHT22;8466;52.286;21.124;2023-10-19T07:26:11;4.50;99.90
16700;DHT22;8466;52.286;21.124;2023-10-19T07:28:41;4.60;99.90
16700;DHT22;8466;52.286;21.124;2023-10-19T07:31:11;4.70;99.90
16700;DHT22;8466;52.286;21.124;2023-10-19T07:33:44;4.80;99.90
16700;DHT22;8466;52.286;21.124;2023-10-19T07:36:14;5.00;99.90
16700;DHT22;8466;52.286;21.124;2023-10-19T07:38:47;5.20;99.90
16700;DHT22;8466;52.286;21.124;2023-10-19T07:41:16;5.20;99.90
16700;DHT22;8466;52.286;21.124;2023-10-19T07:43:45;5.30;99.90
16700;DHT22;8466;52.286;21.124;2023-10-19T07:46:14;5.40;99.90
16700;DHT22;8466;52.286;21.124;2023-10-19T07:48:43;5.40;99.90
16700;DHT22;8466;52.286;21.124;2023-10-19T07:51:12;5.60;99.90
16700;DHT22;8466;52.286;21.124;2023-10-19T07:53:44;5.80;99.90
16700;DHT22;8466;52.286;21.124;2023-10-19T07:56:13;5.90;99.90
16700;DHT22;8466;52.286;21.124;2023-10-19T07:58:42;6.10;99.90
16700;DHT22;8466;52.286;21.124;2023-10-19T08:01:10;6.20;99.90
16700;DHT22;8466;52.286;21.124;2023-10-19T08:03:39;6.40;99.90
16700;DHT22;8466;52.286;21.124;2023-10-19T08:06:10;6.50;99.90
16700;DHT22;8466;52.286;21.124;2023-10-19T08:08:38;6.70;99.90
16700;DHT22;8466;52.286;21.124;2023-10-19T08:11:09;6.90;99.90
16700;DHT22;8466;52.286;21.124;2023-10-19T08:13:38;7.10;99.90
16700;DHT22;8466;52.286;21.124;2023-10-19T08:16:08;7.20;99.90
16700;DHT22;8466;52.286;21.124;2023-10-19T08:18:39;7.40;99.90
16700;DHT22;8466;52.286;21.124;2023-10-19T08:21:10;7.60;99.90
16700;DHT22;8466;52.286;21.124;2023-10-19T08:23:39;7.80;99.90
16700;DHT22;8466;52.286;21.124;2023-10-19T08:26:09;8.00;99.90
16700;DHT22;8466;52.286;21.124;2023-10-19T08:28:38;8.10;99.90
16700;DHT22;8466;52.286;21.124;2023-10-19T08:31:08;8.20;99.90
16700;DHT22;8466;52.286;21.124;2023-10-19T08:33:38;8.30;99.90
16700;DHT22;8466;52.286;21.124;2023-10-19T08:36:17;8.40;99.90
16700;DHT22;8466;52.286;21.124;2023-10-19T08:38:47;8.60;99.90
16700;DHT22;8466;52.286;21.124;2023-10-19T08:41:21;8.70;99.90
16700;DHT22;8466;52.286;21.124;2023-10-19T08:43:50;8.80;99.90
16700;DHT22;8466;52.286;21.124;2023-10-19T08:46:19;8.90;99.90
16700;DHT22;8466;52.286;21.124;2023-10-19T08:48:47;8.90;99.90
16700;DHT22;8466;52.286;21.124;2023-10-19T08:51:18;8.90;99.90
16700;DHT22;8466;52.286;21.124;2023-10-19T08:53:48;8.90;99.90
16700;DHT22;8466;52.286;21.124;2023-10-19T08:56:18;9.00;99.90
16700;DHT22;8466;52.286;21.124;2023-10-19T08:58:51;9.00;99.90
16700;DHT22;8466;52.286;21.124;2023-10-19T09:01:20;9.00;99.90
16700;DHT22;8466;52.286;21.124;2023-10-19T09:03:51;9.00;99.90
16700;DHT22;8466;52.286;21.124;2023-10-19T09:06:22;9.00;99.90
16700;DHT22;8466;52.286;21.124;2023-10-19T09:08:50;9.00;99.90
16700;DHT22;8466;52.286;21.124;2023-10-19T09:11:20;9.10;99.90
16700;DHT22;8466;52.286;21.124;2023-10-19T09:13:51;9.10;99.90
16700;DHT22;8466;52.286;21.124;2023-10-19T09:16:21;9.30;99.90
16700;DHT22;8466;52.286;21.124;2023-10-19T09:18:51;9.30;99.90
16700;DHT22;8466;52.286;21.124;2023-10-19T09:21:22;9.50;99.90
16700;DHT22;8466;52.286;21.124;2023-10-19T09:23:53;9.50;99.90
16700;DHT22;8466;52.286;21.124;2023-10-19T09:26:22;9.70;99.90
16700;DHT22;8466;52.286;21.124;2023-10-19T09:28:53;9.90;99.90
16700;DHT22;8466;52.286;21.124;2023-10-19T09:31:22;10.10;99.90
16700;DHT22;8466;52.286;21.124;2023-10-19T09:33:52;10.30;99.90
16700;DHT22;8466;52.286;21.124;2023-10-19T09:36:25;10.50;99.90
16700;DHT22;8466;52.286;21.124;2023-10-19T09:38:57;10.70;99.90
16700;DHT22;8466;52.286;21.124;2023-10-19T09:41:26;10.80;99.90
16700;DHT22;8466;52.286;21.124;2023-10-19T09:44:00;10.90;99.90
16700;DHT22;8466;52.286;21.124;2023-10-19T09:46:32;11.00;99.90
16700;DHT22;8466;52.286;21.124;2023-10-19T09:49:04;11.20;99.90
16700;DHT22;8466;52.286;21.124;2023-10-19T09:51:35;11.40;99.90
16700;DHT22;8466;52.286;21.124;2023-10-19T09:54:11;11.40;99.90
16700;DHT22;8466;52.286;21.124;2023-10-19T09:56:49;11.50;99.90
16700;DHT22;8466;52.286;21.124;2023-10-19T09:59:32;11.60;99.90
16700;DHT22;8466;52.286;21.124;2023-10-19T10:02:07;11.70;99.90
16700;DHT22;8466;52.286;21.124;2023-10-19T10:04:38;11.70;99.90
16700;DHT22;8466;52.286;21.124;2023-10-19T10:07:09;11.60;99.90
16700;DHT22;8466;52.286;21.124;2023-10-19T10:09:40;11.50;99.90
16700;DHT22;8466;52.286;21.124;2023-10-19T10:12:21;11.60;99.90
16700;DHT22;8466;52.286;21.124;2023-10-19T10:14:58;11.60;99.90
16700;DHT22;8466;52.286;21.124;2023-10-19T10:17:29;11.60;99.90
16700;DHT22;8466;52.286;21.124;2023-10-19T10:20:29;11.60;99.90
16700;DHT22;8466;52.286;21.124;2023-10-19T10:23:20;11.70;99.90
16700;DHT22;8466;52.286;21.124;2023-10-19T10:25:55;11.80;99.90
16700;DHT22;8466;52.286;21.124;2023-10-19T10:28:26;11.80;99.90
16700;DHT22;8466;52.286;21.124;2023-10-19T10:33:53;12.00;99.90
16700;DHT22;8466;52.286;21.124;2023-10-19T10:36:23;12.10;99.90
16700;DHT22;8466;52.286;21.124;2023-10-19T10:39:02;12.20;99.90
16700;DHT22;8466;52.286;21.124;2023-10-19T10:41:33;12.30;99.90
16700;DHT22;8466;52.286;21.124;2023-10-19T10:44:03;12.30;99.90
16700;DHT22;8466;52.286;21.124;2023-10-19T10:46:32;12.40;99.90
16700;DHT22;8466;52.286;21.124;2023-10-19T10:49:00;12.40;99.90
16700;DHT22;8466;52.286;21.124;2023-10-19T10:51:29;12.20;99.90
16700;DHT22;8466;52.286;21.124;2023-10-19T10:53:59;12.50;99.90
16700;DHT22;8466;52.286;21.124;2023-10-19T10:56:28;12.50;99.90
16700;DHT22;8466;52.286;21.124;2023-10-19T10:58:59;12.60;99.90
16700;DHT22;8466;52.286;21.124;2023-10-19T11:01:28;12.60;99.90
16700;DHT22;8466;52.286;21.124;2023-10-19T11:04:08;12.70;99.90
16700;DHT22;8466;52.286;21.124;2023-10-19T11:06:50;12.80;99.90
16700;DHT22;8466;52.286;21.124;2023-10-19T11:09:21;12.70;99.90
16700;DHT22;8466;52.286;21.124;2023-10-19T11:11:50;12.70;99.90
16700;DHT22;8466;52.286;21.124;2023-10-19T11:14:19;12.70;99.90
16700;DHT22;8466;52.286;21.124;2023-10-19T11:16:52;12.70;99.90
16700;DHT22;8466;52.286;21.124;2023-10-19T11:19:20;12.70;99.90
16700;DHT22;8466;52.286;21.124;2023-10-19T11:21:53;12.60;99.90
16700;DHT22;8466;52.286;21.124;2023-10-19T11:24:27;12.60;99.90
16700;DHT22;8466;52.286;21.124;2023-10-19T11:27:01;12.70;99.90
16700;DHT22;8466;52.286;21.124;2023-10-19T11:29:29;12.70;99.90
16700;DHT22;8466;52.286;21.124;2023-10-19T11:31:59;12.80;99.90
16700;DHT22;8466;52.286;21.124;2023-10-19T11:34:30;13.00;99.90
16700;DHT22;8466;52.286;21.124;2023-10-19T11:37:02;13.10;99.90
16700;DHT22;8466;52.286;21.124;2023-10-19T11:39:34;13.20;99.90
16700;DHT22;8466;52.286;21.124;2023-10-19T11:42:03;13.30;99.60
16700;DHT22;8466;52.286;21.124;2023-10-19T11:44:32;13.30;99.60
16700;DHT22;8466;52.286;21.124;2023-10-19T11:47:00;13.30;99.90
16700;DHT22;8466;52.286;21.124;2023-10-19T11:49:30;13.30;99.70
16700;DHT22;8466;52.286;21.124;2023-10-19T11:51:59;13.30;99.90
16700;DHT22;8466;52.286;21.124;2023-10-19T11:54:29;13.20;99.20
16700;DHT22;8466;52.286;21.124;2023-10-19T11:57:00;13.20;99.30
16700;DHT22;8466;52.286;21.124;2023-10-19T11:59:29;13.10;99.50
16700;DHT22;8466;52.286;21.124;2023-10-19T12:01:57;12.90;99.80
16700;DHT22;8466;52.286;21.124;2023-10-19T12:04:28;12.90;99.40
16700;DHT22;8466;52.286;21.124;2023-10-19T12:06:57;12.80;99.90
16700;DHT22;8466;52.286;21.124;2023-10-19T12:09:25;12.70;99.80
16700;DHT22;8466;52.286;21.124;2023-10-19T12:11:55;12.70;99.60
16700;DHT22;8466;52.286;21.124;2023-10-19T12:14:25;12.60;99.90
16700;DHT22;8466;52.286;21.124;2023-10-19T12:16:54;12.60;99.90
16700;DHT22;8466;52.286;21.124;2023-10-19T12:19:26;12.70;99.90
16700;DHT22;8466;52.286;21.124;2023-10-19T12:21:57;12.70;99.70
16700;DHT22;8466;52.286;21.124;2023-10-19T12:24:26;12.70;99.90
16700;DHT22;8466;52.286;21.124;2023-10-19T12:26:56;12.70;99.90
16700;DHT22;8466;52.286;21.124;2023-10-19T12:29:27;12.80;99.90
16700;DHT22;8466;52.286;21.124;2023-10-19T12:31:56;12.80;99.90
16700;DHT22;8466;52.286;21.124;2023-10-19T12:34:24;12.80;99.70
16700;DHT22;8466;52.286;21.124;2023-10-19T12:36:57;12.90;99.90
16700;DHT22;8466;52.286;21.124;2023-10-19T12:39:26;12.90;99.80
16700;DHT22;8466;52.286;21.124;2023-10-19T12:42:10;12.80;99.40
16700;DHT22;8466;52.286;21.124;2023-10-19T12:44:40;12.80;99.30
16700;DHT22;8466;52.286;21.124;2023-10-19T12:47:14;12.60;99.80
16700;DHT22;8466;52.286;21.124;2023-10-19T12:49:44;12.60;99.80
16700;DHT22;8466;52.286;21.124;2023-10-19T12:52:13;12.60;99.50
16700;DHT22;8466;52.286;21.124;2023-10-19T12:54:42;12.60;99.90
16700;DHT22;8466;52.286;21.124;2023-10-19T12:57:15;12.50;99.90
16700;DHT22;8466;52.286;21.124;2023-10-19T12:59:45;12.40;99.90
16700;DHT22;8466;52.286;21.124;2023-10-19T13:02:14;12.30;99.90
16700;DHT22;8466;52.286;21.124;2023-10-19T13:04:43;12.20;99.90
16700;DHT22;8466;52.286;21.124;2023-10-19T13:07:13;12.00;99.90
16700;DHT22;8466;52.286;21.124;2023-10-19T13:09:42;11.90;99.90
16700;DHT22;8466;52.286;21.124;2023-10-19T13:12:11;11.80;99.90
16700;DHT22;8466;52.286;21.124;2023-10-19T13:14:40;11.80;99.90
16700;DHT22;8466;52.286;21.124;2023-10-19T13:17:12;11.70;99.90
16700;DHT22;8466;52.286;21.124;2023-10-19T13:19:41;11.70;99.90
16700;DHT22;8466;52.286;21.124;2023-10-19T13:22:10;11.50;99.90
16700;DHT22;8466;52.286;21.124;2023-10-19T13:24:42;11.50;99.90
16700;DHT22;8466;52.286;21.124;2023-10-19T13:27:10;11.40;99.90
16700;DHT22;8466;52.286;21.124;2023-10-19T13:29:39;11.40;99.90
16700;DHT22;8466;52.286;21.124;2023-10-19T13:32:09;11.30;99.90
16700;DHT22;8466;52.286;21.124;2023-10-19T13:34:40;11.20;99.90
16700;DHT22;8466;52.286;21.124;2023-10-19T13:37:09;11.10;99.90
16700;DHT22;8466;52.286;21.124;2023-10-19T13:39:38;11.10;99.90
16700;DHT22;8466;52.286;21.124;2023-10-19T13:42:07;11.00;99.90
16700;DHT22;8466;52.286;21.124;2023-10-19T13:44:36;11.00;99.90
16700;DHT22;8466;52.286;21.124;2023-10-19T13:47:06;10.90;99.90
16700;DHT22;8466;52.286;21.124;2023-10-19T13:49:36;10.90;99.90
16700;DHT22;8466;52.286;21.124;2023-10-19T13:52:06;10.90;99.90
16700;DHT22;8466;52.286;21.124;2023-10-19T13:54:41;10.90;99.90
16700;DHT22;8466;52.286;21.124;2023-10-19T13:57:13;10.90;99.90
16700;DHT22;8466;52.286;21.124;2023-10-19T13:59:42;10.90;99.90
16700;DHT22;8466;52.286;21.124;2023-10-19T14:02:20;11.00;99.90
16700;DHT22;8466;52.286;21.124;2023-10-19T14:04:49;11.00;99.90
16700;DHT22;8466;52.286;21.124;2023-10-19T14:07:20;11.00;99.90
16700;DHT22;8466;52.286;21.124;2023-10-19T14:09:49;11.00;99.90
16700;DHT22;8466;52.286;21.124;2023-10-19T14:12:17;11.00;99.90
16700;DHT22;8466;52.286;21.124;2023-10-19T14:14:46;11.00;99.90
16700;DHT22;8466;52.286;21.124;2023-10-19T14:17:15;10.90;99.90
16700;DHT22;8466;52.286;21.124;2023-10-19T14:19:43;10.90;99.90
16700;DHT22;8466;52.286;21.124;2023-10-19T14:22:12;10.90;99.90
16700;DHT22;8466;52.286;21.124;2023-10-19T14:24:44;10.90;99.90
16700;DHT22;8466;52.286;21.124;2023-10-19T14:27:13;10.90;99.90
16700;DHT22;8466;52.286;21.124;2023-10-19T14:29:42;10.80;99.90
16700;DHT22;8466;52.286;21.124;2023-10-19T14:32:10;10.80;99.90
16700;DHT22;8466;52.286;21.124;2023-10-19T14:34:40;10.80;99.90
16700;DHT22;8466;52.286;21.124;2023-10-19T14:37:09;10.80;99.90
16700;DHT22;8466;52.286;21.124;2023-10-19T14:39:38;10.80;99.90
16700;DHT22;8466;52.286;21.124;2023-10-19T14:42:08;10.80;99.90
16700;DHT22;8466;52.286;21.124;2023-10-19T14:44:37;10.80;99.90
16700;DHT22;8466;52.286;21.124;2023-10-19T14:47:08;10.80;99.90
16700;DHT22;8466;52.286;21.124;2023-10-19T14:49:38;10.70;99.90
16700;DHT22;8466;52.286;21.124;2023-10-19T14:52:07;10.70;99.90
16700;DHT22;8466;52.286;21.124;2023-10-19T14:54:36;10.60;99.90
16700;DHT22;8466;52.286;21.124;2023-10-19T14:57:04;10.60;99.90
16700;DHT22;8466;52.286;21.124;2023-10-19T14:59:35;10.60;99.90
16700;DHT22;8466;52.286;21.124;2023-10-19T15:02:06;10.50;99.90
16700;DHT22;8466;52.286;21.124;2023-10-19T15:04:39;10.60;99.90
16700;DHT22;8466;52.286;21.124;2023-10-19T15:07:08;10.50;99.90
16700;DHT22;8466;52.286;21.124;2023-10-19T15:09:37;10.20;99.90
16700;DHT22;8466;52.286;21.124;2023-10-19T15:12:06;10.40;99.90
16700;DHT22;8466;52.286;21.124;2023-10-19T15:14:40;10.30;99.90
16700;DHT22;8466;52.286;21.124;2023-10-19T15:17:09;10.30;99.90
16700;DHT22;8466;52.286;21.124;2023-10-19T15:19:39;10.20;99.90
16700;DHT22;8466;52.286;21.124;2023-10-19T15:22:08;10.10;99.90
16700;DHT22;8466;52.286;21.124;2023-10-19T15:24:38;10.10;99.90
16700;DHT22;8466;52.286;21.124;2023-10-19T15:27:08;10.20;99.90
16700;DHT22;8466;52.286;21.124;2023-10-19T15:29:39;10.10;99.90
16700;DHT22;8466;52.286;21.124;2023-10-19T15:32:10;10.00;99.90
16700;DHT22;8466;52.286;21.124;2023-10-19T15:34:41;10.10;99.90
16700;DHT22;8466;52.286;21.124;2023-10-19T15:37:10;10.00;99.90
16700;DHT22;8466;52.286;21.124;2023-10-19T15:39:39;10.00;99.90
16700;DHT22;8466;52.286;21.124;2023-10-19T15:42:09;10.00;99.90
16700;DHT22;8466;52.286;21.124;2023-10-19T15:44:47;9.90;99.90
16700;DHT22;8466;52.286;21.124;2023-10-19T15:47:19;9.80;99.90
16700;DHT22;8466;52.286;21.124;2023-10-19T15:49:50;9.80;99.90
16700;DHT22;8466;52.286;21.124;2023-10-19T15:52:21;9.80;99.90
16700;DHT22;8466;52.286;21.124;2023-10-19T15:54:52;9.80;99.90
16700;DHT22;8466;52.286;21.124;2023-10-19T15:57:21;9.80;99.90
16700;DHT22;8466;52.286;21.124;2023-10-19T15:59:52;9.80;99.90
16700;DHT22;8466;52.286;21.124;2023-10-19T16:02:25;9.80;99.90
16700;DHT22;8466;52.286;21.124;2023-10-19T16:04:58;9.80;99.90
16700;DHT22;8466;52.286;21.124;2023-10-19T16:07:50;9.70;99.90